Riverdale, Utah
Current Conditions -  °F | °C
As of 8:58 PM on Saturday 22 Nov 2014 (Local Time) from KHIF Reporting Station
Few Clouds Few Clouds  
Wind Chill: 29°   Ceiling: Unl
Heat Index: 35°   Visibility: 10mi
Dew Point: 35°   Wind: 7mph
Humidity: 99%   Direction: 160°SSE
Pressure: 29.88"   Gusts: NA
Location:  41.162°N, 111.972°W
Report Text: KHIF 230358Z AUTO 16006KT 10SM FEW020 02/02 A2988 RMK AO2 SLP110 T00170016
Loading
Personal Weather Stations






























Interactive Weather Map New forecast layout! Learn more

10-Day Weather Forecast

Advertisements
Track Severe Weather on mobile